Terminal Aerodrome Forecast
Issued by NWS Paducah, KY

Home | Current Version | Previous Version | Text Only | Print | Product List | Glossary On
Versions: 1 2 3 4 5 6 7 8 9 10
000
FTUS43 KPAH 251120
TAFEVV
TAF
KEVV 251120Z 2512/2612 00000KT 5SM BR SCT250
     FM251300 00000KT P6SM SCT250
     FM251600 VRB03KT P6SM SCT050
     FM260000 00000KT P6SM SCT250
     FM260900 00000KT 5SM BR SCT250=

USA.gov is the U.S. government's official web portal to all federal, state and local government web resources and services.